createdAt,value
2022-12-23T00:04:44.890Z,5.10
2022-12-23T00:09:48.005Z,4.89
2022-12-23T00:15:07.344Z,4.79
2022-12-23T00:20:13.528Z,4.85
2022-12-23T00:25:17.849Z,4.93
2022-12-23T00:30:21.353Z,4.95
2022-12-23T00:35:24.608Z,4.85
2022-12-23T00:40:46.685Z,4.78
2022-12-23T00:45:50.718Z,4.79
2022-12-23T00:50:54.275Z,4.64
2022-12-23T00:55:57.381Z,4.43
2022-12-23T01:01:19.612Z,4.57
2022-12-23T01:06:23.442Z,4.41
2022-12-23T01:11:27.174Z,4.25
2022-12-23T01:16:30.382Z,4.35
2022-12-23T01:21:34.719Z,4.29
2022-12-23T01:26:37.825Z,4.16
2022-12-23T01:31:41.709Z,4.12
2022-12-23T01:36:44.881Z,4.18
2022-12-23T01:42:06.641Z,4.14
2022-12-23T01:47:15.229Z,4.05
2022-12-23T01:52:18.919Z,4.10
2022-12-23T01:57:23.136Z,4.04
2022-12-23T02:02:48.017Z,4.06
2022-12-23T02:08:12.004Z,4.14
2022-12-23T02:13:29.785Z,4.43
2022-12-23T02:18:59.789Z,4.61
2022-12-23T02:24:27.648Z,4.52
2022-12-23T02:29:50.342Z,4.41
2022-12-23T02:35:01.890Z,4.26
2022-12-23T02:40:42.487Z,4.17
2022-12-23T02:46:26.635Z,4.20
2022-12-23T02:51:34.588Z,4.15
2022-12-23T02:56:43.975Z,4.19
2022-12-23T03:01:48.967Z,4.14
2022-12-23T03:06:54.743Z,4.06
2022-12-23T03:12:13.119Z,3.91
2022-12-23T03:17:39.368Z,3.77
2022-12-23T03:23:13.241Z,3.84
2022-12-23T03:28:34.421Z,3.81
2022-12-23T03:33:43.258Z,3.75
2022-12-23T03:38:47.882Z,3.78
2022-12-23T03:43:59.284Z,3.84
2022-12-23T03:49:09.457Z,3.67
2022-12-23T03:54:19.809Z,3.74
2022-12-23T03:59:29.064Z,3.64
2022-12-23T04:04:54.244Z,3.71
2022-12-23T04:09:59.406Z,3.60
2022-12-23T04:15:10.720Z,3.55
2022-12-23T04:20:16.556Z,3.54
2022-12-23T04:25:19.976Z,3.68
2022-12-23T04:30:26.720Z,3.50
2022-12-23T04:35:34.808Z,3.76
2022-12-23T04:40:39.543Z,3.81
2022-12-23T04:45:42.627Z,3.68
2022-12-23T04:50:46.149Z,3.59
2022-12-23T04:55:52.536Z,3.70
2022-12-23T05:01:12.335Z,3.73
2022-12-23T05:06:15.482Z,3.79
2022-12-23T05:11:18.602Z,3.88
2022-12-23T05:16:22.418Z,4.03
2022-12-23T05:21:26.326Z,4.05
2022-12-23T05:26:29.443Z,3.86
2022-12-23T05:31:33.167Z,3.79
2022-12-23T05:36:36.829Z,3.74
2022-12-23T05:41:40.013Z,3.78
2022-12-23T05:46:43.531Z,3.96
2022-12-23T05:51:46.707Z,4.07
2022-12-23T05:56:50.896Z,4.23
2022-12-23T06:01:55.537Z,4.57
2022-12-23T06:06:59.196Z,4.97
2022-12-23T06:12:03.070Z,5.14
2022-12-23T06:17:06.683Z,5.09
2022-12-23T06:22:10.360Z,5.25
2022-12-23T06:27:14.899Z,5.11
2022-12-23T06:32:18.834Z,5.16
2022-12-23T06:37:22.187Z,5.16
2022-12-23T06:42:25.641Z,5.06
2022-12-23T06:47:29.072Z,5.01
2022-12-23T06:52:32.493Z,5.07
2022-12-23T06:57:36.165Z,5.40
2022-12-23T07:02:39.870Z,5.82
2022-12-23T07:07:43.196Z,6.03
2022-12-23T07:12:50.684Z,7.54
2022-12-23T07:17:55.576Z,12.33
2022-12-23T07:22:58.872Z,10.53
2022-12-23T07:28:02.501Z,8.70
2022-12-23T07:33:05.500Z,8.86
2022-12-23T07:38:09.545Z,14.24
2022-12-23T07:43:12.723Z,17.92
2022-12-23T07:48:16.371Z,19.72
2022-12-23T07:53:19.590Z,17.17
2022-12-23T07:58:23.253Z,14.43
2022-12-23T08:03:26.496Z,18.11
2022-12-23T08:08:29.764Z,21.82
2022-12-23T08:13:35.455Z,22.34
2022-12-23T08:18:40.761Z,23.50
2022-12-23T08:23:44.630Z,21.47
2022-12-23T08:28:49.995Z,21.93
2022-12-23T08:33:56.312Z,22.44
2022-12-23T08:39:04.599Z,24.50
2022-12-23T08:44:09.640Z,23.11
2022-12-23T08:49:13.076Z,21.74
2022-12-23T08:54:18.096Z,22.08
2022-12-23T08:59:21.639Z,22.59
2022-12-23T09:04:25.745Z,22.74
2022-12-23T09:09:29.179Z,23.68
2022-12-23T09:14:32.282Z,25.19
2022-12-23T09:19:35.855Z,22.46
2022-12-23T09:24:39.813Z,22.39
2022-12-23T09:29:43.981Z,21.76
2022-12-23T09:34:47.287Z,21.74
2022-12-23T09:39:50.681Z,20.82
2022-12-23T09:45:35.497Z,21.66
2022-12-23T09:50:43.059Z,21.03
2022-12-23T09:55:46.652Z,22.01
2022-12-23T10:01:16.582Z,21.07
2022-12-23T10:06:30.935Z,21.46
2022-12-23T10:11:44.857Z,20.94
2022-12-23T10:16:53.351Z,20.58
2022-12-23T10:22:06.570Z,20.27
2022-12-23T10:27:39.682Z,19.64
2022-12-23T10:33:04.282Z,19.50
2022-12-23T10:38:33.052Z,19.23
2022-12-23T10:43:53.306Z,19.98
2022-12-23T10:49:11.157Z,18.32
2022-12-23T10:54:36.006Z,19.33
2022-12-23T10:59:39.880Z,18.35
2022-12-23T11:04:49.144Z,17.94
2022-12-23T11:10:07.866Z,18.16
2022-12-23T11:15:36.988Z,18.04
2022-12-23T11:20:45.290Z,17.14
2022-12-23T11:25:49.095Z,17.39
2022-12-23T11:31:05.910Z,17.61
2022-12-23T11:36:13.037Z,17.10
2022-12-23T11:41:26.614Z,17.20
2022-12-23T11:46:32.913Z,17.57
2022-12-23T11:51:36.428Z,17.88
2022-12-23T11:56:41.992Z,18.96
2022-12-23T12:01:49.458Z,18.96
2022-12-23T12:06:56.685Z,18.20
2022-12-23T12:12:14.357Z,19.36
2022-12-23T12:17:23.452Z,19.08
2022-12-23T12:22:40.321Z,19.75
2022-12-23T12:27:48.665Z,20.10
2022-12-23T12:33:01.191Z,19.82
2022-12-23T12:38:34.252Z,19.38
2022-12-23T12:44:19.180Z,19.72
2022-12-23T12:49:48.026Z,20.85
2022-12-23T12:54:58.696Z,19.82
2022-12-23T13:00:06.342Z,18.08
2022-12-23T13:05:35.939Z,17.42
2022-12-23T13:10:45.191Z,17.52
2022-12-23T13:15:52.171Z,20.28
2022-12-23T13:21:10.878Z,21.73
2022-12-23T13:26:25.421Z,21.41
2022-12-23T13:31:48.211Z,22.06
2022-12-23T13:36:51.541Z,21.94
2022-12-23T13:42:04.648Z,22.03
2022-12-23T13:47:19.151Z,21.12
2022-12-23T13:52:37.168Z,20.85
2022-12-23T13:58:15.704Z,18.83
2022-12-23T14:03:25.411Z,17.71
2022-12-23T14:08:43.391Z,18.05
2022-12-23T14:14:02.400Z,18.61
2022-12-23T14:19:05.412Z,18.45
2022-12-23T14:24:26.887Z,16.82
2022-12-23T14:29:59.965Z,15.46
2022-12-23T14:35:35.429Z,14.80
2022-12-23T14:40:43.570Z,14.13
2022-12-23T14:45:47.040Z,13.45
2022-12-23T14:51:02.226Z,13.18
2022-12-23T14:56:20.777Z,12.92
2022-12-23T15:01:29.355Z,12.56
2022-12-23T15:06:38.630Z,12.15
2022-12-23T15:11:42.983Z,11.94
2022-12-23T15:16:46.770Z,11.56
2022-12-23T15:22:03.248Z,11.24
2022-12-23T15:27:29.257Z,10.73
2022-12-23T15:32:34.103Z,10.32
2022-12-23T15:37:38.410Z,10.08
2022-12-23T15:42:49.180Z,9.63
2022-12-23T15:47:52.771Z,9.35
2022-12-23T15:52:59.221Z,9.10
2022-12-23T15:58:04.489Z,8.86
2022-12-23T16:03:48.872Z,8.69
2022-12-23T16:08:58.047Z,8.24
2022-12-23T16:14:21.370Z,8.14
2022-12-23T16:19:40.473Z,7.97
2022-12-23T16:24:47.075Z,7.77
2022-12-23T16:29:50.854Z,7.60
2022-12-23T16:34:54.484Z,7.36
2022-12-23T16:39:57.583Z,7.17
2022-12-23T16:45:01.326Z,6.99
2022-12-23T16:50:06.124Z,6.73
2022-12-23T16:55:20.989Z,6.62
2022-12-23T17:00:24.564Z,6.67
2022-12-23T17:05:28.073Z,6.62
2022-12-23T17:10:31.718Z,6.36
2022-12-23T17:15:34.883Z,6.40
2022-12-23T17:20:38.226Z,6.33
2022-12-23T17:25:42.208Z,6.26
2022-12-23T17:30:46.207Z,6.15
2022-12-23T17:35:49.442Z,6.03
2022-12-23T17:40:55.322Z,6.05
2022-12-23T17:45:58.784Z,5.99
2022-12-23T17:51:02.641Z,5.85
2022-12-23T17:56:23.280Z,5.85
2022-12-23T18:01:30.245Z,5.66
2022-12-23T18:06:34.325Z,5.75
2022-12-23T18:11:42.223Z,5.80
2022-12-23T18:16:45.630Z,5.78
2022-12-23T18:21:50.089Z,5.81
2022-12-23T18:26:54.684Z,5.80
2022-12-23T18:31:58.313Z,5.72
2022-12-23T18:37:02.300Z,5.64
2022-12-23T18:42:06.050Z,5.56
2022-12-23T18:47:10.953Z,5.58
2022-12-23T18:52:14.604Z,5.51
2022-12-23T18:57:18.421Z,5.46
2022-12-23T19:02:22.847Z,5.47
2022-12-23T19:07:26.135Z,5.44
2022-12-23T19:12:31.192Z,5.36
2022-12-23T19:17:35.560Z,5.52
2022-12-23T19:22:39.728Z,5.42
2022-12-23T19:27:44.296Z,5.37
2022-12-23T19:32:51.982Z,5.38
2022-12-23T19:37:55.614Z,5.34
2022-12-23T19:42:59.416Z,5.27
2022-12-23T19:48:03.201Z,5.23
2022-12-23T19:53:06.792Z,5.22
2022-12-23T19:58:10.357Z,5.32
2022-12-23T20:03:14.140Z,5.21
2022-12-23T20:08:18.465Z,5.19
2022-12-23T20:13:22.567Z,5.09
2022-12-23T20:18:25.969Z,4.94
2022-12-23T20:23:30.526Z,5.00
2022-12-23T20:28:35.060Z,5.03
2022-12-23T20:33:40.015Z,4.84
2022-12-23T20:38:46.648Z,4.85
2022-12-23T20:44:15.719Z,4.83
2022-12-23T20:49:14.863Z,4.82
2022-12-23T20:54:19.087Z,4.76
2022-12-23T20:59:22.227Z,4.69
2022-12-23T21:04:26.533Z,4.80
2022-12-23T21:09:30.546Z,4.68
2022-12-23T21:14:34.198Z,4.67
2022-12-23T21:19:38.335Z,4.51
2022-12-23T21:24:42.070Z,4.60
2022-12-23T21:29:46.078Z,4.58
2022-12-23T21:34:49.663Z,4.55
2022-12-23T21:39:53.242Z,4.53
2022-12-23T21:44:57.935Z,4.55
2022-12-23T21:50:01.552Z,4.56
2022-12-23T21:55:05.280Z,4.56
2022-12-23T22:00:09.071Z,4.65
2022-12-23T22:05:12.671Z,4.64
2022-12-23T22:10:16.942Z,4.77
2022-12-23T22:15:21.930Z,4.76
2022-12-23T22:20:26.171Z,4.83
2022-12-23T22:25:30.494Z,4.74
2022-12-23T22:30:35.243Z,4.79
2022-12-23T22:35:38.874Z,4.79
2022-12-23T22:40:43.259Z,4.73
2022-12-23T22:45:46.841Z,4.74
2022-12-23T22:50:50.805Z,4.58
2022-12-23T22:56:02.100Z,4.54
2022-12-23T23:01:06.370Z,4.32
2022-12-23T23:06:11.069Z,4.48
2022-12-23T23:11:15.520Z,4.45
2022-12-23T23:16:19.099Z,4.30
2022-12-23T23:21:23.441Z,4.24
2022-12-23T23:26:27.777Z,4.36
2022-12-23T23:31:41.710Z,4.32
2022-12-23T23:36:46.564Z,4.26
2022-12-23T23:41:51.494Z,4.25
2022-12-23T23:46:55.064Z,4.25
2022-12-23T23:51:58.640Z,4.26
2022-12-23T23:57:04.037Z,4.34
